• Join FlightAware (Why Join?)
  • Login
  • US Flag 
06:27AM EDT


 

Airport Tracker/Info


-or-


 

Live Flight TrackerFlight Track Log ✈ PJC32 ✈ 11-May-2013 ✈ KAPF - KPJC

Flight Track Log - Related Links

Times and Time Zones

All times are in EDT time to prevent confusion due to time zone crossing. See the PJC32 flight status page for this flight to view local times or setup timezone preferences in your user account.

Time Position Orientation Groundspeed Altitude Reporting Facility
EDT Latitude Longitude Course Direction KTS MPH feet Rate Location/Type
03:57PM 26.1308 -81.8525 North 223 257 4,000  Level Miami Center
03:58PM 26.1606 -81.9000 305° West 188 216 7,700 3,300 Climbing Miami Center
03:59PM 26.2219 -81.8725 22° Northeast 146 168 10,700 2,640 Climbing Miami Center
04:00PM 26.2997 -81.8617 North 212 244 13,000 2,160 Climbing Miami Center
04:01PM 26.3836 -81.8469 North 265 305 15,100 2,280 Climbing Miami Center
04:02PM 26.7657 -81.7500 North  Level FlightAware Approximate
04:02PM 26.4739 -81.8297 10° North 303 349 17,600  Level Miami Center
04:03PM 26.5619 -81.8194 North 311 358 19,500 1,980 Climbing Miami Center
04:04PM 26.6564 -81.8072 North 322 371 21,600 1,980 Climbing Miami Center
04:05PM 26.7531 -81.7858 11° North 336 387 23,500 1,800 Climbing Miami Center
04:06PM 26.8497 -81.7736 North 346 398 25,300 1,800 Climbing Miami Center
04:07PM 26.9547 -81.7547 North 357 411 27,200 1,860 Climbing Miami Center
04:08PM 27.0506 -81.7542 360° North 357 411 29,100 1,800 Climbing Miami Center
04:09PM 27.1456 -81.7861 343° North 348 400 30,900 1,740 Climbing Miami Center
04:10PM 27.2281 -81.8131 344° North 348 400 32,600 1,740 Climbing Miami Center
04:11PM 27.3242 -81.8147 359° North 348 400 34,400 1,860 Climbing Miami Center
04:12PM 27.4258 -81.7722 20° North 343 395 36,400 1,860 Climbing Miami Center
04:13PM 27.5167 -81.7364 19° North 343 395 38,200 1,800 Climbing Miami Center
04:14PM 27.6033 -81.7050 18° North 338 389 40,000 1,380 Climbing Miami Center
04:15PM 27.6794 -81.6753 19° North 330 380 41,000 480 Climbing Miami Center
04:16PM 27.7753 -81.6772 359° North 324 373 41,000  Level Miami Center
04:17PM 27.8753 -81.6836 357° North 337 388 41,000  Level Miami Center
04:18PM 27.9767 -81.7067 349° North 360 414 41,000  Level Miami Center
04:19PM 28.0850 -81.7161 356° North 374 430 41,000  Level Miami Center
04:20PM 28.1875 -81.7042 North 374 430 41,000  Level Miami Center
04:21PM 28.2903 -81.6944 North 369 425 41,000  Level Miami Center
04:22PM 28.3947 -81.6819 North 365 420 41,000  Level Jacksonville Center
04:23PM 28.5011 -81.6761 North 370 426 41,000  Level Jacksonville Center
04:24PM 28.6072 -81.6653 North 370 426 41,000  Level Jacksonville Center
04:25PM 28.7136 -81.6592 North 375 432 41,000  Level Jacksonville Center
04:26PM 28.8200 -81.6483 North 381 438 41,000  Level Jacksonville Center
04:27PM 28.9264 -81.6378 North 381 438 41,000  Level Jacksonville Center
04:28PM 29.0347 -81.6292 North 386 444 41,000  Level Jacksonville Center
04:29PM 29.1286 -81.6208 North 386 444 41,000 300 Level Jacksonville Center
04:30PM 29.2308 -81.6122 North 381 438 41,600 900 Climbing Jacksonville Center
04:31PM 29.3353 -81.6039 North 371 427 42,800 660 Climbing Jacksonville Center
04:32PM 29.4394 -81.5906 North 366 421 43,000 60 Climbing Jacksonville Center
04:33PM 29.5439 -81.6011 355° North 371 427 43,000  Level Jacksonville Center
04:34PM 29.6425 -81.6406 341° North 366 421 43,000  Level Jacksonville Center
04:35PM 29.7408 -81.6822 340° North 371 427 43,000  Level Jacksonville Center
04:36PM 29.8456 -81.6953 354° North 371 427 43,000  Level Jacksonville Center
04:37PM 29.9558 -81.6819 North 378 435 43,000  Level Jacksonville Center
04:38PM 30.0622 -81.6661 North 383 441 43,000  Level Jacksonville Center
04:39PM 30.1708 -81.6528 North 383 441 43,000  Level Jacksonville Center
04:40PM 30.2792 -81.6369 North 388 447 43,000  Level Jacksonville Center
04:41PM 30.3939 -81.6233 North 393 452 43,000 240 Level Jacksonville Center
04:42PM 30.5147 -81.6122 North 398 458 43,500 780 Climbing Jacksonville Center
04:43PM 30.6233 -81.6011 North 398 458 44,600 720 Climbing Jacksonville Center
04:44PM 30.7297 -81.5875 North 386 444 45,000 180 Climbing Jacksonville Center
04:45PM 30.8381 -81.5764 North 386 444 45,000  Level Jacksonville Center
04:46PM 30.9528 -81.5603 North 391 450 45,000  Level Jacksonville Center
04:47PM 31.0675 -81.5489 North 406 467 45,000  Level Jacksonville Center
04:48PM 31.1842 -81.5350 North 411 473 45,000  Level Jacksonville Center
04:49PM 31.3011 -81.5214 North 411 473 45,000  Level Jacksonville Center
04:50PM 31.4136 -81.5025 North 406 467 45,000  Level Jacksonville Center
04:51PM 31.5242 -81.4911 North 406 467 45,000  Level Jacksonville Center
04:52PM 31.6261 -81.4775 North 400 460 45,000  Level Jacksonville Center
04:53PM 31.7492 -81.4633 North 400 460 45,000  Level Jacksonville Center
04:54PM 31.8494 -81.4519 North 405 466 45,000  Level Jacksonville Center
04:55PM 31.9703 -81.4403 North 400 460 45,000  Level Jacksonville Center
04:56PM 32.0850 -81.4261 North 408 470 45,000  Level Jacksonville Center
04:57PM 32.1892 -81.4172 North 411 473 45,000  Level Jacksonville Center
04:58PM 32.3122 -81.3981 North 406 467 45,000  Level Jacksonville Center
04:59PM 32.4228 -81.3839 North 406 467 45,000  Level Jacksonville Center
05:00PM 32.5228 -81.3700 North 406 467 45,000  Level Jacksonville Center
05:01PM 32.6458 -81.3556 North 406 467 45,000  Level Jacksonville Center
05:02PM 32.7458 -81.3414 North 406 467 45,000  Level Jacksonville Center
05:03PM 32.8561 -81.3297 North 406 467 45,000  Level Jacksonville Center
05:04PM 32.9689 -81.3153 North 406 467 45,000  Level Jacksonville Center
05:05PM 33.0792 -81.3011 North 406 467 45,000  Level Jacksonville Center
05:06PM 33.1897 -81.2842 North 406 467 45,000  Level Jacksonville Center
05:07PM 33.3022 -81.2722 North 406 467 45,000  Level Jacksonville Center
05:09PM 33.5161 -81.2408 North 385 443 45,000  Level Atlanta Center
05:10PM 33.6389 -81.2242 North 397 457 45,000  Level Atlanta Center
05:11PM 33.7492 -81.2106 North 397 457 45,000  Level Atlanta Center
05:12PM 33.8636 -81.1969 North 402 463 45,000  Level Atlanta Center
05:13PM 33.9739 -81.1831 North 402 463 45,000  Level Atlanta Center
05:14PM 34.0864 -81.1669 North 407 468 45,000  Level Atlanta Center
05:15PM 34.2008 -81.1531 North 407 468 45,000  Level Atlanta Center
05:16PM 34.3131 -81.1392 North 402 463 45,000  Level Atlanta Center
05:17PM 34.4275 -81.1275 North 402 463 45,000  Level Atlanta Center
05:18PM 34.5297 -81.1164 North 402 463 45,000  Level Atlanta Center
05:19PM 34.6439 -81.0972 North 407 468 45,000  Level Atlanta Center
05:20PM 34.7583 -81.0833 North 407 468 45,000  Level Atlanta Center
05:21PM 34.8747 -81.0664 North 407 468 45,000  Level Atlanta Center
05:22PM 34.9869 -81.0497 North 407 468 45,000  Level Atlanta Center
05:23PM 35.1014 -81.0356 North 407 468 45,000  Level Atlanta Center
05:24PM 35.2158 -81.0211 North 407 468 45,000  Level Atlanta Center
05:25PM 35.3303 -81.0042 North 407 468 45,000  Level Atlanta Center
05:26PM 35.4467 -80.9847 North 412 474 45,000  Level Atlanta Center
05:27PM 35.5653 -80.9700 North 417 480 45,000  Level Atlanta Center
05:28PM 35.6817 -80.9528 North 424 488 45,000  Level Atlanta Center
05:29PM 35.8000 -80.9381 North 424 488 45,000  Level Atlanta Center
05:30PM 35.9186 -80.9233 North 424 488 45,000  Level Atlanta Center
05:31PM 36.0475 -80.9056 North 419 482 45,000  Level Atlanta Center
05:32PM 36.1661 -80.8908 North 425 489 45,000 -480 Level Atlanta Center
05:33PM 36.2825 -80.8758 North 418 481 44,100 -1,200 Descending Atlanta Center
05:34PM 36.4008 -80.8583 North 424 488 42,600 -1,560 Descending Atlanta Center
05:35PM 36.5961 -80.8319 North 440 506 40,100 -1,500 Descending Indianapolis Center
05:36PM 36.6633 -80.8225 North 441 507 39,300 -1,440 Descending Washington Center
05:37PM 36.7833 -80.8022 North 436 502 37,800 -1,200 Descending Washington Center
05:38PM 36.8986 -80.7917 North 421 484 37,000 -420 Descending Washington Center
05:39PM 37.0225 -80.7742 North 428 493 37,000  Level Washington Center
05:40PM 37.1336 -80.7608 North 438 504 37,000  Level Washington Center
05:41PM 37.2553 -80.7428 North 444 511 37,000 -60 Level Washington Center
05:42PM 37.3792 -80.7250 North 444 511 36,900 -960 Descending Washington Center
05:43PM 37.5031 -80.7072 North 444 511 35,100 -960 Descending Washington Center
05:44PM 37.6417 -80.6878 North 452 520 35,000 -300 Descending Washington Center
05:45PM 37.7681 -80.6544 12° North 452 520 34,600 -960 Descending Washington Center
05:46PM 37.8925 -80.6258 10° North 452 520 33,100 -1,440 Descending Washington Center
05:47PM 38.0231 -80.5925 11° North 452 520 31,700 -1,440 Descending Washington Center
05:48PM 38.1539 -80.5589 11° North 457 526 30,200 -1,560 Descending Washington Center
05:49PM 38.2675 -80.5322 10° North 471 542 28,700 -1,560 Descending Washington Center
05:50PM 38.3750 -80.4961 15° North 464 534 27,500 -1,500 Descending Indianapolis Center
05:51PM 38.5022 -80.4639 11° North 465 535 26,100 -1,440 Descending Indianapolis Center
05:52PM 38.6258 -80.4319 11° North 457 526 24,600 -1,560 Descending Indianapolis Center
05:53PM 38.7500 -80.3997 11° North 454 522 23,000 -1,560 Descending Indianapolis Center
05:54PM 38.8711 -80.3667 12° North 448 516 21,500 -1,020 Descending Indianapolis Center
05:55PM 38.9917 -80.3367 11° North 443 510 21,000 -180 Descending Indianapolis Center
05:58PM 39.3850 -80.2581 North 425 489 21,000 -300 Level Cleveland Center
05:59PM 39.4789 -80.2522 North 419 482 20,000 -1,260 Descending Cleveland Center
06:00PM 39.5956 -80.2464 North 419 482 18,500 -1,800 Descending Cleveland Center
06:01PM 39.7144 -80.2350 North 411 473 16,500 -1,800 Descending Cleveland Center
06:02PM 39.8247 -80.2289 North 398 458 15,000 -1,560 Descending Cleveland Center
06:03PM 39.9289 -80.2203 North 381 438 13,400 -1,140 Descending Cleveland Center
06:04PM 40.0289 -80.2061 North 374 430 12,800 -1,200 Descending Cleveland Center
06:05PM 40.1331 -80.1867 North 349 402 11,100 -1,740 Descending Cleveland Center
06:06PM 40.2250 -80.1725 North 338 389 9,400 -1,680 Descending Cleveland Center
06:07PM 40.2997 -80.1583 North 274 315 7,800 -1,740 Descending Cleveland Center
06:08PM 40.3644 -80.1472 North 268 308 6,000 -1,860 Descending Cleveland Center
06:09PM 40.4436 -80.1331 North 263 303 4,100 -1,200 Descending Cleveland Center
06:10PM 40.5122 -80.1189 North 252 290 3,700 -540 Descending Cleveland Center
06:11PM 40.5769 -80.1103 North 242 278 3,100 -600 Descending Cleveland Center
06:13PM 40.7524 -80.1500 North  Level FlightAware Approximate
06:20PM 40.8000 -80.1500 North  Level FlightAware Approximate
06:21PM 40.8020 -80.1609 North  Level Estimated
06:22PM 40.8020 -80.1609 North  Level Estimated